Terminal Aerodrome Forecast
Issued by NWS Louisville, KY

Home | Current Version | Previous Version | Text Only | Print | Product List | Glossary On
Versions: 1 2 3 4 5 6 7 8 9 10 11 12 13 14 15 16 17 18 19
296
FTUS43 KLMK 231724
TAFSDF
TAF
KSDF 231724Z 2318/2424 23010KT P6SM -SHRA SCT035 BKN120
     FM231900 28009KT P6SM SCT040 SCT200
     FM240100 28004KT P6SM FEW035 SCT200
     FM240900 00000KT 5SM BR FEW045 SCT250
     FM241200 28005KT P6SM FEW045 SCT200=

USA.gov is the U.S. government's official web portal to all federal, state and local government web resources and services.